sensor_id;sensor_type;location;lat;lon;timestamp;pressure;altitude;pressure_sealevel;temperature;humidity
62655;BME280;48717;55.556;37.816;2023-04-26T00:00:41;98113.16;;;10.38;98.50
62655;BME280;48717;55.556;37.816;2023-04-26T00:03:09;98113.88;;;10.43;98.59
62655;BME280;48717;55.556;37.816;2023-04-26T00:05:36;98139.00;;;10.57;98.96
62655;BME280;48717;55.556;37.816;2023-04-26T00:08:04;98129.56;;;10.50;98.32
62655;BME280;48717;55.556;37.816;2023-04-26T00:10:31;98120.06;;;10.42;98.64
62655;BME280;48717;55.556;37.816;2023-04-26T00:12:58;98118.34;;;10.41;98.93
62655;BME280;48717;55.556;37.816;2023-04-26T00:15:25;98130.59;;;10.42;99.12
62655;BME280;48717;55.556;37.816;2023-04-26T00:17:52;98101.16;;;10.28;98.57
62655;BME280;48717;55.556;37.816;2023-04-26T00:20:20;98123.63;;;10.41;99.03
62655;BME280;48717;55.556;37.816;2023-04-26T00:22:47;98127.00;;;10.47;99.41
62655;BME280;48717;55.556;37.816;2023-04-26T00:25:14;98121.75;;;10.47;98.54
62655;BME280;48717;55.556;37.816;2023-04-26T00:27:42;98113.88;;;10.45;98.59
62655;BME280;48717;55.556;37.816;2023-04-26T00:30:09;98117.47;;;10.41;98.08
62655;BME280;48717;55.556;37.816;2023-04-26T00:32:37;98106.88;;;10.44;98.65
62655;BME280;48717;55.556;37.816;2023-04-26T00:35:05;98112.00;;;10.49;98.67
62655;BME280;48717;55.556;37.816;2023-04-26T00:37:33;98109.38;;;10.49;97.57
62655;BME280;48717;55.556;37.816;2023-04-26T00:40:00;98103.28;;;10.47;97.12
62655;BME280;48717;55.556;37.816;2023-04-26T00:42:30;98098.94;;;10.46;97.29
62655;BME280;48717;55.556;37.816;2023-04-26T00:44:57;98112.84;;;10.51;98.50
62655;BME280;48717;55.556;37.816;2023-04-26T00:47:24;98084.22;;;10.37;97.79
62655;BME280;48717;55.556;37.816;2023-04-26T00:49:52;98102.38;;;10.48;98.71
62655;BME280;48717;55.556;37.816;2023-04-26T00:52:20;98100.59;;;10.50;98.88
62655;BME280;48717;55.556;37.816;2023-04-26T00:54:48;98087.28;;;10.53;98.39
62655;BME280;48717;55.556;37.816;2023-04-26T00:57:15;98084.78;;;10.50;98.40
62655;BME280;48717;55.556;37.816;2023-04-26T00:59:42;98082.25;;;10.45;98.12
62655;BME280;48717;55.556;37.816;2023-04-26T01:02:09;98071.63;;;10.48;97.95
62655;BME280;48717;55.556;37.816;2023-04-26T01:04:37;98082.22;;;10.47;97.73
62655;BME280;48717;55.556;37.816;2023-04-26T01:07:06;98086.59;;;10.46;97.45
62655;BME280;48717;55.556;37.816;2023-04-26T01:09:34;98069.97;;;10.46;97.67
62655;BME280;48717;55.556;37.816;2023-04-26T01:12:01;98057.09;;;10.33;97.67
62655;BME280;48717;55.556;37.816;2023-04-26T01:14:29;98059.47;;;10.42;98.18
62655;BME280;48717;55.556;37.816;2023-04-26T01:16:56;98048.19;;;10.37;97.51
62655;BME280;48717;55.556;37.816;2023-04-26T01:19:23;98041.28;;;10.33;97.14
62655;BME280;48717;55.556;37.816;2023-04-26T01:21:51;98055.91;;;10.45;97.23
62655;BME280;48717;55.556;37.816;2023-04-26T01:24:20;98060.38;;;10.41;98.11
62655;BME280;48717;55.556;37.816;2023-04-26T01:26:47;98049.03;;;10.38;97.67
62655;BME280;48717;55.556;37.816;2023-04-26T01:29:19;98048.19;;;10.37;97.47
62655;BME280;48717;55.556;37.816;2023-04-26T01:31:47;98057.75;;;10.41;97.09
62655;BME280;48717;55.556;37.816;2023-04-26T01:34:15;98045.41;;;10.42;97.58
62655;BME280;48717;55.556;37.816;2023-04-26T01:36:45;98045.41;;;10.42;97.88
62655;BME280;48717;55.556;37.816;2023-04-26T01:39:12;98041.94;;;10.41;97.74
62655;BME280;48717;55.556;37.816;2023-04-26T01:41:39;98014.41;;;10.20;98.15
62655;BME280;48717;55.556;37.816;2023-04-26T01:44:07;98027.13;;;10.37;98.27
62655;BME280;48717;55.556;37.816;2023-04-26T01:46:34;98033.38;;;10.33;99.40
62655;BME280;48717;55.556;37.816;2023-04-26T01:49:01;98036.03;;;10.33;99.02
62655;BME280;48717;55.556;37.816;2023-04-26T01:51:29;98018.50;;;10.32;99.66
62655;BME280;48717;55.556;37.816;2023-04-26T01:53:56;98027.19;;;10.34;99.28
62655;BME280;48717;55.556;37.816;2023-04-26T01:56:24;98025.31;;;10.38;99.57
62655;BME280;48717;55.556;37.816;2023-04-26T01:58:52;98008.91;;;10.29;100.00
62655;BME280;48717;55.556;37.816;2023-04-26T02:01:22;97993.31;;;10.22;100.00
62655;BME280;48717;55.556;37.816;2023-04-26T02:03:50;98010.44;;;10.37;100.00
62655;BME280;48717;55.556;37.816;2023-04-26T02:06:19;98019.09;;;10.40;100.00
62655;BME280;48717;55.556;37.816;2023-04-26T02:08:47;98001.50;;;10.42;100.00
62655;BME280;48717;55.556;37.816;2023-04-26T02:11:15;98012.06;;;10.41;100.00
62655;BME280;48717;55.556;37.816;2023-04-26T02:13:43;98006.03;;;10.37;100.00
62655;BME280;48717;55.556;37.816;2023-04-26T02:16:11;97987.84;;;10.29;100.00
62655;BME280;48717;55.556;37.816;2023-04-26T02:18:38;98006.13;;;10.34;100.00
62655;BME280;48717;55.556;37.816;2023-04-26T02:21:07;98003.38;;;10.39;100.00
62655;BME280;48717;55.556;37.816;2023-04-26T02:23:35;98005.94;;;10.40;100.00
62655;BME280;48717;55.556;37.816;2023-04-26T02:26:02;97963.63;;;10.16;100.00
62655;BME280;48717;55.556;37.816;2023-04-26T02:28:30;97994.59;;;10.38;100.00
62655;BME280;48717;55.556;37.816;2023-04-26T02:30:57;97995.59;;;10.34;100.00
62655;BME280;48717;55.556;37.816;2023-04-26T02:33:24;97967.97;;;10.17;100.00
62655;BME280;48717;55.556;37.816;2023-04-26T02:35:51;97983.44;;;10.28;100.00
62655;BME280;48717;55.556;37.816;2023-04-26T02:38:19;97988.75;;;10.27;100.00
62655;BME280;48717;55.556;37.816;2023-04-26T02:40:46;97987.03;;;10.26;100.00
62655;BME280;48717;55.556;37.816;2023-04-26T02:43:16;97969.72;;;10.18;100.00
62655;BME280;48717;55.556;37.816;2023-04-26T02:45:43;97981.16;;;10.16;100.00
62655;BME280;48717;55.556;37.816;2023-04-26T02:48:12;97974.22;;;10.13;100.00
62655;BME280;48717;55.556;37.816;2023-04-26T02:50:41;97973.41;;;10.11;100.00
62655;BME280;48717;55.556;37.816;2023-04-26T02:53:08;97974.16;;;10.16;100.00
62655;BME280;48717;55.556;37.816;2023-04-26T02:55:37;97970.59;;;10.17;100.00
62655;BME280;48717;55.556;37.816;2023-04-26T02:58:05;97948.16;;;10.04;100.00
62655;BME280;48717;55.556;37.816;2023-04-26T03:00:32;97960.38;;;10.06;100.00
62655;BME280;48717;55.556;37.816;2023-04-26T03:03:00;97956.75;;;10.11;100.00
62655;BME280;48717;55.556;37.816;2023-04-26T03:05:29;97969.78;;;10.15;100.00
62655;BME280;48717;55.556;37.816;2023-04-26T03:07:56;97955.78;;;10.13;100.00
62655;BME280;48717;55.556;37.816;2023-04-26T03:10:24;97964.44;;;10.18;100.00
62655;BME280;48717;55.556;37.816;2023-04-26T03:12:51;97948.81;;;10.12;100.00
62655;BME280;48717;55.556;37.816;2023-04-26T03:15:19;97959.03;;;10.23;100.00
62655;BME280;48717;55.556;37.816;2023-04-26T03:17:46;97958.97;;;10.25;100.00
62655;BME280;48717;55.556;37.816;2023-04-26T03:20:13;97943.38;;;10.18;100.00
62655;BME280;48717;55.556;37.816;2023-04-26T03:22:40;97950.16;;;10.26;100.00
62655;BME280;48717;55.556;37.816;2023-04-26T03:25:09;97939.75;;;10.23;100.00
62655;BME280;48717;55.556;37.816;2023-04-26T03:27:36;97950.22;;;10.24;100.00
62655;BME280;48717;55.556;37.816;2023-04-26T03:30:04;97939.63;;;10.26;100.00
62655;BME280;48717;55.556;37.816;2023-04-26T03:32:34;97926.75;;;10.16;100.00
62655;BME280;48717;55.556;37.816;2023-04-26T03:35:01;97944.06;;;10.25;100.00
62655;BME280;48717;55.556;37.816;2023-04-26T03:37:31;97940.47;;;10.28;100.00
62655;BME280;48717;55.556;37.816;2023-04-26T03:40:05;97919.88;;;10.11;100.00
62655;BME280;48717;55.556;37.816;2023-04-26T03:42:35;97948.25;;;10.31;100.00
62655;BME280;48717;55.556;37.816;2023-04-26T03:45:03;97932.44;;;10.31;100.00
62655;BME280;48717;55.556;37.816;2023-04-26T03:47:33;97937.56;;;10.37;100.00
62655;BME280;48717;55.556;37.816;2023-04-26T03:50:00;97925.19;;;10.39;100.00
62655;BME280;48717;55.556;37.816;2023-04-26T03:52:29;97908.81;;;10.29;100.00
62655;BME280;48717;55.556;37.816;2023-04-26T03:54:57;97916.34;;;10.40;100.00
62655;BME280;48717;55.556;37.816;2023-04-26T03:57:24;97923.28;;;10.44;100.00
62655;BME280;48717;55.556;37.816;2023-04-26T03:59:51;97923.13;;;10.51;100.00
62655;BME280;48717;55.556;37.816;2023-04-26T04:02:19;97923.88;;;10.54;100.00
62655;BME280;48717;55.556;37.816;2023-04-26T04:04:47;97916.72;;;10.58;100.00
62655;BME280;48717;55.556;37.816;2023-04-26T04:07:14;97896.19;;;10.39;100.00
62655;BME280;48717;55.556;37.816;2023-04-26T04:09:42;97917.75;;;10.54;100.00
62655;BME280;48717;55.556;37.816;2023-04-26T04:12:09;97917.69;;;10.55;100.00
62655;BME280;48717;55.556;37.816;2023-04-26T04:14:36;97919.31;;;10.60;100.00
62655;BME280;48717;55.556;37.816;2023-04-26T04:17:05;97912.25;;;10.62;100.00
62655;BME280;48717;55.556;37.816;2023-04-26T04:19:33;97913.81;;;10.67;99.50
62655;BME280;48717;55.556;37.816;2023-04-26T04:22:00;97905.66;;;10.75;99.94
62655;BME280;48717;55.556;37.816;2023-04-26T04:24:28;97911.69;;;10.79;99.50
62655;BME280;48717;55.556;37.816;2023-04-26T04:26:55;97893.13;;;10.82;99.19
62655;BME280;48717;55.556;37.816;2023-04-26T04:29:22;97903.38;;;10.91;99.33
62655;BME280;48717;55.556;37.816;2023-04-26T04:31:49;97910.22;;;10.97;99.54
62655;BME280;48717;55.556;37.816;2023-04-26T04:34:17;97905.69;;;11.01;98.33
62655;BME280;48717;55.556;37.816;2023-04-26T04:36:45;97904.78;;;11.02;98.18
62655;BME280;48717;55.556;37.816;2023-04-26T04:39:12;97898.63;;;11.03;98.03
62655;BME280;48717;55.556;37.816;2023-04-26T04:41:43;97906.34;;;11.07;97.90
62655;BME280;48717;55.556;37.816;2023-04-26T04:44:16;97890.78;;;11.00;97.81
62655;BME280;48717;55.556;37.816;2023-04-26T04:46:44;97903.53;;;11.14;97.69
62655;BME280;48717;55.556;37.816;2023-04-26T04:49:11;97910.34;;;11.19;97.95
62655;BME280;48717;55.556;37.816;2023-04-26T04:51:38;97916.50;;;11.20;98.06
62655;BME280;48717;55.556;37.816;2023-04-26T04:54:15;97907.75;;;11.18;97.89
62655;BME280;48717;55.556;37.816;2023-04-26T04:56:45;97901.63;;;11.17;97.33
62655;BME280;48717;55.556;37.816;2023-04-26T04:59:14;97903.13;;;11.25;97.08
62655;BME280;48717;55.556;37.816;2023-04-26T05:01:41;97896.13;;;11.23;97.09
62655;BME280;48717;55.556;37.816;2023-04-26T05:04:12;97912.63;;;11.30;97.73
62655;BME280;48717;55.556;37.816;2023-04-26T05:06:40;97894.31;;;11.26;97.38
62655;BME280;48717;55.556;37.816;2023-04-26T05:09:09;97915.09;;;11.35;96.80
62655;BME280;48717;55.556;37.816;2023-04-26T05:11:38;97915.75;;;11.42;97.11
62655;BME280;48717;55.556;37.816;2023-04-26T05:14:07;97907.00;;;11.40;96.82
62655;BME280;48717;55.556;37.816;2023-04-26T05:16:34;97906.28;;;11.36;95.81
62655;BME280;48717;55.556;37.816;2023-04-26T05:19:02;97915.00;;;11.38;95.83
62655;BME280;48717;55.556;37.816;2023-04-26T05:21:31;97896.69;;;11.33;97.03
62655;BME280;48717;55.556;37.816;2023-04-26T05:23:58;97881.72;;;11.34;96.96
62655;BME280;48717;55.556;37.816;2023-04-26T05:26:25;97893.56;;;11.47;96.72
62655;BME280;48717;55.556;37.816;2023-04-26T05:29:11;97906.59;;;11.52;96.19
62655;BME280;48717;55.556;37.816;2023-04-26T05:31:49;97897.75;;;11.53;96.01
62655;BME280;48717;55.556;37.816;2023-04-26T05:34:26;97906.25;;;11.61;96.12
62655;BME280;48717;55.556;37.816;2023-04-26T05:36:56;97897.19;;;11.69;95.36
62655;BME280;48717;55.556;37.816;2023-04-26T05:39:23;97902.28;;;11.73;95.21
62655;BME280;48717;55.556;37.816;2023-04-26T05:41:50;97898.88;;;11.71;94.43
62655;BME280;48717;55.556;37.816;2023-04-26T05:44:18;97899.44;;;11.80;94.83
62655;BME280;48717;55.556;37.816;2023-04-26T05:46:45;97899.44;;;11.80;94.07
62655;BME280;48717;55.556;37.816;2023-04-26T05:49:13;97902.66;;;11.88;93.72
62655;BME280;48717;55.556;37.816;2023-04-26T05:51:40;97904.09;;;11.97;94.24
62655;BME280;48717;55.556;37.816;2023-04-26T05:54:08;97900.41;;;12.01;93.43
62655;BME280;48717;55.556;37.816;2023-04-26T05:56:35;97887.56;;;11.92;92.94
62655;BME280;48717;55.556;37.816;2023-04-26T05:59:02;97893.47;;;11.98;93.72
62655;BME280;48717;55.556;37.816;2023-04-26T06:01:31;97895.94;;;12.03;93.62
62655;BME280;48717;55.556;37.816;2023-04-26T06:03:59;97901.34;;;12.00;93.12
62655;BME280;48717;55.556;37.816;2023-04-26T06:06:34;97908.94;;;12.09;93.23
62655;BME280;48717;55.556;37.816;2023-04-26T06:09:01;97900.16;;;12.09;92.91
62655;BME280;48717;55.556;37.816;2023-04-26T06:11:28;97911.44;;;12.14;93.13
62655;BME280;48717;55.556;37.816;2023-04-26T06:13:56;97889.91;;;11.99;93.43
62655;BME280;48717;55.556;37.816;2023-04-26T06:16:24;97920.81;;;12.21;92.74
62655;BME280;48717;55.556;37.816;2023-04-26T06:18:51;97913.94;;;12.17;91.89
62655;BME280;48717;55.556;37.816;2023-04-26T06:21:18;97905.78;;;12.23;91.75
62655;BME280;48717;55.556;37.816;2023-04-26T06:23:46;97899.94;;;12.15;92.08
62655;BME280;48717;55.556;37.816;2023-04-26T06:26:16;97918.75;;;12.30;91.38
62655;BME280;48717;55.556;37.816;2023-04-26T06:28:43;97918.53;;;12.36;91.52
62655;BME280;48717;55.556;37.816;2023-04-26T06:31:10;97922.22;;;12.32;91.10
62655;BME280;48717;55.556;37.816;2023-04-26T06:33:38;97905.22;;;12.15;90.85
62655;BME280;48717;55.556;37.816;2023-04-26T06:36:05;97893.19;;;12.06;91.80
62655;BME280;48717;55.556;37.816;2023-04-26T06:38:36;97920.34;;;12.34;91.04
62655;BME280;48717;55.556;37.816;2023-04-26T06:41:04;97890.72;;;12.25;90.74
62655;BME280;48717;55.556;37.816;2023-04-26T06:43:32;97900.94;;;12.35;90.92
62655;BME280;48717;55.556;37.816;2023-04-26T06:46:04;97914.59;;;12.46;90.50
62655;BME280;48717;55.556;37.816;2023-04-26T06:48:32;97905.78;;;12.46;89.10
62655;BME280;48717;55.556;37.816;2023-04-26T06:51:10;97922.94;;;12.58;89.44
62655;BME280;48717;55.556;37.816;2023-04-26T06:53:38;97929.50;;;12.71;88.85
62655;BME280;48717;55.556;37.816;2023-04-26T06:56:05;97918.16;;;12.68;88.41
62655;BME280;48717;55.556;37.816;2023-04-26T06:58:32;97922.28;;;12.75;87.65
62655;BME280;48717;55.556;37.816;2023-04-26T07:00:59;97927.50;;;12.76;87.06
62655;BME280;48717;55.556;37.816;2023-04-26T07:03:27;97939.69;;;12.81;87.14
62655;BME280;48717;55.556;37.816;2023-04-26T07:05:55;97922.44;;;12.70;87.54
62655;BME280;48717;55.556;37.816;2023-04-26T07:08:22;97904.16;;;12.65;87.71
62655;BME280;48717;55.556;37.816;2023-04-26T07:10:49;97926.22;;;12.64;87.73
62655;BME280;48717;55.556;37.816;2023-04-26T07:13:17;97938.03;;;12.78;88.13
62655;BME280;48717;55.556;37.816;2023-04-26T07:15:44;97915.66;;;12.64;87.21
62655;BME280;48717;55.556;37.816;2023-04-26T07:18:12;97932.66;;;12.79;86.69
62655;BME280;48717;55.556;37.816;2023-04-26T07:20:39;97943.25;;;12.79;86.35
62655;BME280;48717;55.556;37.816;2023-04-26T07:23:06;97935.50;;;12.75;85.97
62655;BME280;48717;55.556;37.816;2023-04-26T07:25:33;97946.81;;;12.78;86.06
62655;BME280;48717;55.556;37.816;2023-04-26T07:28:00;97937.84;;;12.83;86.04
62655;BME280;48717;55.556;37.816;2023-04-26T07:30:27;97946.06;;;12.97;85.02
62655;BME280;48717;55.556;37.816;2023-04-26T07:32:55;97947.09;;;12.93;85.34
62655;BME280;48717;55.556;37.816;2023-04-26T07:35:22;97953.75;;;13.03;84.77
62655;BME280;48717;55.556;37.816;2023-04-26T07:37:49;97939.53;;;13.06;84.11
62655;BME280;48717;55.556;37.816;2023-04-26T07:40:16;97942.72;;;13.14;83.17
62655;BME280;48717;55.556;37.816;2023-04-26T07:42:45;97935.25;;;13.03;83.06
62655;BME280;48717;55.556;37.816;2023-04-26T07:45:13;97936.19;;;13.23;82.70
62655;BME280;48717;55.556;37.816;2023-04-26T07:47:40;97953.25;;;13.37;82.12
62655;BME280;48717;55.556;37.816;2023-04-26T07:50:08;97960.16;;;13.41;81.20
62655;BME280;48717;55.556;37.816;2023-04-26T07:52:35;97948.63;;;13.21;81.51
62655;BME280;48717;55.556;37.816;2023-04-26T07:55:03;97965.06;;;13.29;80.56
62655;BME280;48717;55.556;37.816;2023-04-26T07:57:30;97948.34;;;13.27;80.61
62655;BME280;48717;55.556;37.816;2023-04-26T07:59:57;97964.84;;;13.56;80.59
62655;BME280;48717;55.556;37.816;2023-04-26T08:02:24;97962.56;;;13.47;78.87
62655;BME280;48717;55.556;37.816;2023-04-26T08:05:09;97971.78;;;13.37;80.06
62655;BME280;48717;55.556;37.816;2023-04-26T08:07:36;97974.44;;;13.37;80.81
62655;BME280;48717;55.556;37.816;2023-04-26T08:10:04;97962.69;;;13.22;80.55
62655;BME280;48717;55.556;37.816;2023-04-26T08:12:32;97966.72;;;13.10;81.79
62655;BME280;48717;55.556;37.816;2023-04-26T08:15:00;97955.78;;;12.74;82.42
62655;BME280;48717;55.556;37.816;2023-04-26T08:17:31;97954.81;;;12.77;83.07
62655;BME280;48717;55.556;37.816;2023-04-26T08:19:59;97960.41;;;12.69;83.49
62655;BME280;48717;55.556;37.816;2023-04-26T08:22:26;97986.38;;;12.82;84.03
62655;BME280;48717;55.556;37.816;2023-04-26T08:24:54;97977.69;;;12.78;84.06
62655;BME280;48717;55.556;37.816;2023-04-26T08:27:21;97973.38;;;12.75;84.58
62655;BME280;48717;55.556;37.816;2023-04-26T08:29:49;97982.41;;;12.92;84.38
62655;BME280;48717;55.556;37.816;2023-04-26T08:32:16;97991.28;;;12.91;85.05
62655;BME280;48717;55.556;37.816;2023-04-26T08:34:43;97996.41;;;12.96;84.08
62655;BME280;48717;55.556;37.816;2023-04-26T08:37:11;97977.19;;;12.90;84.88
62655;BME280;48717;55.556;37.816;2023-04-26T08:39:38;97982.97;;;13.00;84.06
62655;BME280;48717;55.556;37.816;2023-04-26T08:42:13;97998.84;;;13.00;84.38
62655;BME280;48717;55.556;37.816;2023-04-26T08:44:42;97992.22;;;12.90;84.16
62655;BME280;48717;55.556;37.816;2023-04-26T08:47:15;97997.97;;;13.00;84.82
62655;BME280;48717;55.556;37.816;2023-04-26T08:49:45;97981.94;;;13.04;83.87
62655;BME280;48717;55.556;37.816;2023-04-26T08:52:19;98001.56;;;13.21;83.51
62655;BME280;48717;55.556;37.816;2023-04-26T08:54:49;97999.06;;;13.39;82.57
62655;BME280;48717;55.556;37.816;2023-04-26T08:57:20;97987.38;;;13.44;81.73
62655;BME280;48717;55.556;37.816;2023-04-26T08:59:48;97989.44;;;13.58;81.10
62655;BME280;48717;55.556;37.816;2023-04-26T09:02:18;97994.69;;;13.60;80.40
62655;BME280;48717;55.556;37.816;2023-04-26T09:04:47;97989.31;;;13.62;79.94
62655;BME280;48717;55.556;37.816;2023-04-26T09:09:53;97991.63;;;13.69;79.22
62655;BME280;48717;55.556;37.816;2023-04-26T09:12:23;98006.66;;;13.90;78.97
62655;BME280;48717;55.556;37.816;2023-04-26T09:14:50;97993.56;;;13.87;79.01
62655;BME280;48717;55.556;37.816;2023-04-26T09:19:58;98002.69;;;14.00;76.81
62655;BME280;48717;55.556;37.816;2023-04-26T09:22:33;98014.97;;;14.22;76.24
62655;BME280;48717;55.556;37.816;2023-04-26T09:25:02;98019.94;;;14.30;76.23
62655;BME280;48717;55.556;37.816;2023-04-26T09:27:39;98022.44;;;14.52;75.87
62655;BME280;48717;55.556;37.816;2023-04-26T09:30:15;98021.03;;;14.45;74.76
62655;BME280;48717;55.556;37.816;2023-04-26T09:35:34;98026.16;;;14.48;73.78
62655;BME280;48717;55.556;37.816;2023-04-26T09:38:03;98038.69;;;14.25;74.52
62655;BME280;48717;55.556;37.816;2023-04-26T09:43:21;98034.09;;;13.89;76.19
62655;BME280;48717;55.556;37.816;2023-04-26T09:45:52;98037.91;;;13.81;77.46
62655;BME280;48717;55.556;37.816;2023-04-26T09:48:31;98029.31;;;13.76;77.33
62655;BME280;48717;55.556;37.816;2023-04-26T09:51:10;98034.84;;;13.91;76.57
62655;BME280;48717;55.556;37.816;2023-04-26T09:53:41;98030.91;;;14.01;76.03
62655;BME280;48717;55.556;37.816;2023-04-26T09:56:13;98041.09;;;14.10;74.37
62655;BME280;48717;55.556;37.816;2023-04-26T10:01:18;98039.69;;;14.02;72.21
62655;BME280;48717;55.556;37.816;2023-04-26T10:03:46;98057.78;;;14.13;72.57
62655;BME280;48717;55.556;37.816;2023-04-26T10:06:14;98038.84;;;14.01;72.60
62655;BME280;48717;55.556;37.816;2023-04-26T10:08:42;98045.88;;;14.02;73.33
62655;BME280;48717;55.556;37.816;2023-04-26T10:11:10;98061.94;;;14.18;73.85
62655;BME280;48717;55.556;37.816;2023-04-26T10:13:40;98069.28;;;14.32;72.14
62655;BME280;48717;55.556;37.816;2023-04-26T10:16:08;98069.16;;;14.35;72.79
62655;BME280;48717;55.556;37.816;2023-04-26T10:18:36;98060.44;;;14.53;73.33
62655;BME280;48717;55.556;37.816;2023-04-26T10:21:08;98060.84;;;14.83;72.63
62655;BME280;48717;55.556;37.816;2023-04-26T10:23:37;98082.06;;;15.03;71.99
62655;BME280;48717;55.556;37.816;2023-04-26T10:26:04;98074.66;;;15.09;73.94
62655;BME280;48717;55.556;37.816;2023-04-26T10:28:52;98078.00;;;15.32;71.37
62655;BME280;48717;55.556;37.816;2023-04-26T10:34:37;98080.03;;;16.35;70.07
62655;BME280;48717;55.556;37.816;2023-04-26T10:37:06;98087.72;;;16.57;67.29
62655;BME280;48717;55.556;37.816;2023-04-26T10:39:46;98092.19;;;16.23;66.53
62655;BME280;48717;55.556;37.816;2023-04-26T10:42:23;98080.06;;;15.99;67.80
62655;BME280;48717;55.556;37.816;2023-04-26T10:44:54;98098.81;;;16.31;66.17
62655;BME280;48717;55.556;37.816;2023-04-26T10:47:34;98099.94;;;16.43;65.18
62655;BME280;48717;55.556;37.816;2023-04-26T10:50:08;98081.91;;;16.33;64.02
62655;BME280;48717;55.556;37.816;2023-04-26T10:55:40;98085.47;;;16.15;63.80
62655;BME280;48717;55.556;37.816;2023-04-26T10:58:30;98100.91;;;16.42;62.43
62655;BME280;48717;55.556;37.816;2023-04-26T11:01:07;98079.50;;;16.28;62.44
62655;BME280;48717;55.556;37.816;2023-04-26T11:04:06;98112.16;;;16.48;62.37
62655;BME280;48717;55.556;37.816;2023-04-26T11:06:54;98126.50;;;16.27;63.58
62655;BME280;48717;55.556;37.816;2023-04-26T11:09:47;98089.97;;;15.78;64.93
62655;BME280;48717;55.556;37.816;2023-04-26T11:12:15;98111.84;;;15.83;65.84
62655;BME280;48717;55.556;37.816;2023-04-26T11:14:44;98130.09;;;15.35;65.79
62655;BME280;48717;55.556;37.816;2023-04-26T11:17:14;98105.59;;;14.51;67.83
62655;BME280;48717;55.556;37.816;2023-04-26T11:19:42;98133.28;;;14.65;68.98
62655;BME280;48717;55.556;37.816;2023-04-26T11:22:12;98116.78;;;14.58;69.61
62655;BME280;48717;55.556;37.816;2023-04-26T11:24:39;98116.94;;;14.74;68.27
62655;BME280;48717;55.556;37.816;2023-04-26T11:27:09;98142.41;;;14.99;68.37
62655;BME280;48717;55.556;37.816;2023-04-26T11:29:37;98121.44;;;14.93;67.53
62655;BME280;48717;55.556;37.816;2023-04-26T11:32:05;98142.66;;;14.93;68.72
62655;BME280;48717;55.556;37.816;2023-04-26T11:34:34;98135.41;;;14.77;71.06
62655;BME280;48717;55.556;37.816;2023-04-26T11:37:02;98125.81;;;14.54;70.35
62655;BME280;48717;55.556;37.816;2023-04-26T11:39:34;98132.94;;;14.32;73.37
62655;BME280;48717;55.556;37.816;2023-04-26T11:42:11;98130.03;;;14.18;72.72
62655;BME280;48717;55.556;37.816;2023-04-26T11:44:39;98138.94;;;14.57;72.87
62655;BME280;48717;55.556;37.816;2023-04-26T11:47:07;98128.09;;;14.61;71.28
62655;BME280;48717;55.556;37.816;2023-04-26T11:49:36;98145.84;;;15.01;71.12
62655;BME280;48717;55.556;37.816;2023-04-26T11:52:04;98118.72;;;15.33;68.99
62655;BME280;48717;55.556;37.816;2023-04-26T11:54:34;98139.69;;;15.93;67.21
62655;BME280;48717;55.556;37.816;2023-04-26T11:57:22;98146.47;;;16.18;67.19
62655;BME280;48717;55.556;37.816;2023-04-26T11:59:49;98144.56;;;16.03;66.34
62655;BME280;48717;55.556;37.816;2023-04-26T12:02:17;98138.47;;;16.18;65.33
62655;BME280;48717;55.556;37.816;2023-04-26T12:04:46;98147.50;;;16.67;64.38
62655;BME280;48717;55.556;37.816;2023-04-26T12:07:17;98131.16;;;16.91;62.13
62655;BME280;48717;55.556;37.816;2023-04-26T12:09:44;98150.50;;;16.95;59.50
62655;BME280;48717;55.556;37.816;2023-04-26T12:12:11;98131.03;;;17.11;59.22
62655;BME280;48717;55.556;37.816;2023-04-26T12:14:39;98143.22;;;17.63;58.41
62655;BME280;48717;55.556;37.816;2023-04-26T12:17:06;98156.88;;;18.50;55.90
62655;BME280;48717;55.556;37.816;2023-04-26T12:19:35;98161.88;;;19.29;51.96
62655;BME280;48717;55.556;37.816;2023-04-26T12:22:07;98150.41;;;19.97;49.93
62655;BME280;48717;55.556;37.816;2023-04-26T12:24:34;98153.91;;;20.12;49.25
62655;BME280;48717;55.556;37.816;2023-04-26T12:27:04;98140.53;;;19.85;50.24
62655;BME280;48717;55.556;37.816;2023-04-26T12:29:34;98152.16;;;19.98;50.68
62655;BME280;48717;55.556;37.816;2023-04-26T12:32:01;98141.13;;;20.30;49.30
62655;BME280;48717;55.556;37.816;2023-04-26T12:34:29;98145.25;;;20.08;49.26
62655;BME280;48717;55.556;37.816;2023-04-26T12:36:57;98126.28;;;19.29;49.72
62655;BME280;48717;55.556;37.816;2023-04-26T12:39:24;98150.06;;;18.90;51.08
62655;BME280;48717;55.556;37.816;2023-04-26T12:41:51;98133.56;;;18.09;53.17
62655;BME280;48717;55.556;37.816;2023-04-26T12:44:19;98143.59;;;17.57;53.37
62655;BME280;48717;55.556;37.816;2023-04-26T12:46:48;98144.16;;;16.98;55.52
62655;BME280;48717;55.556;37.816;2023-04-26T12:49:16;98167.34;;;16.78;56.63
62655;BME280;48717;55.556;37.816;2023-04-26T12:51:43;98171.00;;;16.41;57.39
62655;BME280;48717;55.556;37.816;2023-04-26T12:54:10;98179.75;;;16.08;57.71
62655;BME280;48717;55.556;37.816;2023-04-26T12:56:37;98187.53;;;15.93;56.42
62655;BME280;48717;55.556;37.816;2023-04-26T12:59:10;98168.22;;;16.27;54.92
62655;BME280;48717;55.556;37.816;2023-04-26T13:01:37;98166.59;;;17.74;51.08
62655;BME280;48717;55.556;37.816;2023-04-26T13:04:05;98152.94;;;19.16;47.21
62655;BME280;48717;55.556;37.816;2023-04-26T13:06:33;98171.56;;;20.15;44.18
62655;BME280;48717;55.556;37.816;2023-04-26T13:09:02;98153.41;;;21.61;41.07
62655;BME280;48717;55.556;37.816;2023-04-26T13:11:29;98145.72;;;23.00;39.52
62655;BME280;48717;55.556;37.816;2023-04-26T13:13:57;98162.50;;;23.71;36.03
62655;BME280;48717;55.556;37.816;2023-04-26T13:16:24;98149.44;;;24.53;34.54